createdAt,value
2018-10-07T00:02:27.976Z,82.03
2018-10-07T00:05:00.578Z,82.21
2018-10-07T00:07:33.081Z,82.17
2018-10-07T00:10:07.344Z,82.02
2018-10-07T00:12:39.876Z,81.96
2018-10-07T00:15:13.910Z,81.91
2018-10-07T00:17:46.924Z,81.97
2018-10-07T00:20:19.439Z,82.00
2018-10-07T00:22:52.022Z,82.07
2018-10-07T00:25:25.064Z,82.26
2018-10-07T00:27:57.623Z,82.50
2018-10-07T00:30:30.399Z,82.53
2018-10-07T00:33:03.385Z,82.53
2018-10-07T00:35:36.944Z,82.73
2018-10-07T00:38:10.223Z,82.82
2018-10-07T00:40:43.177Z,82.90
2018-10-07T00:43:15.773Z,83.07
2018-10-07T00:45:48.986Z,83.20
2018-10-07T00:48:21.575Z,83.33
2018-10-07T00:50:54.487Z,83.42
2018-10-07T00:53:27.028Z,83.69
2018-10-07T00:56:00.808Z,84.01
2018-10-07T00:58:34.300Z,84.22
2018-10-07T01:01:07.456Z,84.39
2018-10-07T01:03:40.283Z,84.59
2018-10-07T01:06:13.552Z,84.88
2018-10-07T01:08:46.069Z,85.10
2018-10-07T01:11:20.856Z,85.21
2018-10-07T01:13:56.840Z,85.63
2018-10-07T01:16:29.967Z,85.74
2018-10-07T01:19:02.492Z,85.78
2018-10-07T01:21:36.030Z,85.81
2018-10-07T01:24:08.729Z,85.78
2018-10-07T01:26:41.415Z,85.82
2018-10-07T01:29:15.131Z,85.68
2018-10-07T01:31:47.805Z,85.73
2018-10-07T01:34:20.830Z,85.78
2018-10-07T01:36:54.812Z,85.85
2018-10-07T01:39:27.642Z,85.90
2018-10-07T01:42:01.092Z,85.98
2018-10-07T01:44:33.989Z,86.04
2018-10-07T01:47:06.597Z,86.04
2018-10-07T01:49:39.212Z,86.05
2018-10-07T01:52:12.758Z,86.09
2018-10-07T01:54:45.394Z,86.19
2018-10-07T01:57:18.822Z,86.18
2018-10-07T01:59:51.747Z,86.28
2018-10-07T02:02:24.495Z,86.37
2018-10-07T02:04:57.126Z,86.12
2018-10-07T02:07:33.508Z,85.96
2018-10-07T02:10:06.343Z,86.05
2018-10-07T02:12:39.080Z,86.09
2018-10-07T02:15:14.549Z,86.18
2018-10-07T02:17:47.304Z,86.51
2018-10-07T02:20:19.948Z,86.68
2018-10-07T02:22:54.136Z,86.94
2018-10-07T02:25:27.548Z,86.93
2018-10-07T02:28:00.363Z,87.09
2018-10-07T02:30:33.331Z,87.39
2018-10-07T02:33:06.769Z,87.53
2018-10-07T02:35:40.917Z,87.28
2018-10-07T02:38:13.841Z,87.21
2018-10-07T02:40:46.469Z,87.03
2018-10-07T02:43:18.997Z,86.81
2018-10-07T02:45:52.905Z,86.66
2018-10-07T02:48:25.388Z,86.44
2018-10-07T02:50:58.093Z,85.88
2018-10-07T02:53:32.362Z,85.89
2018-10-07T02:56:06.465Z,85.85
2018-10-07T02:58:38.957Z,85.52
2018-10-07T03:01:11.797Z,85.32
2018-10-07T03:03:44.561Z,85.21
2018-10-07T03:06:17.440Z,85.07
2018-10-07T03:08:50.293Z,85.22
2018-10-07T03:11:23.347Z,85.04
2018-10-07T03:13:56.486Z,84.84
2018-10-07T03:16:29.432Z,84.65
2018-10-07T03:19:02.050Z,84.88
2018-10-07T03:21:34.504Z,84.96
2018-10-07T03:24:07.483Z,85.01
2018-10-07T03:26:41.100Z,85.05
2018-10-07T03:29:13.696Z,84.82
2018-10-07T03:31:46.705Z,84.65
2018-10-07T03:34:19.485Z,84.68
2018-10-07T03:36:52.032Z,84.89
2018-10-07T03:39:25.985Z,84.66
2018-10-07T03:41:58.457Z,84.87
2018-10-07T03:44:31.095Z,84.99
2018-10-07T03:47:09.232Z,84.87
2018-10-07T03:49:41.828Z,84.72
2018-10-07T03:52:14.171Z,84.50
2018-10-07T03:54:46.952Z,84.11
2018-10-07T03:57:19.745Z,83.86
2018-10-07T03:59:53.108Z,83.71
2018-10-07T04:02:27.183Z,83.73
2018-10-07T04:04:59.671Z,83.89
2018-10-07T04:07:32.383Z,83.78
2018-10-07T04:10:07.332Z,83.54
2018-10-07T04:12:40.167Z,83.27
2018-10-07T04:15:14.857Z,83.14
2018-10-07T04:17:48.828Z,83.25
2018-10-07T04:20:21.415Z,83.54
2018-10-07T04:22:53.937Z,83.90
2018-10-07T04:25:26.814Z,84.27
2018-10-07T04:27:59.349Z,84.83
2018-10-07T04:30:32.883Z,85.17
2018-10-07T04:33:07.588Z,85.34
2018-10-07T04:35:40.420Z,85.74
2018-10-07T04:38:13.385Z,85.93
2018-10-07T04:40:46.396Z,86.59
2018-10-07T04:43:18.873Z,86.65
2018-10-07T04:45:51.538Z,87.08
2018-10-07T04:48:24.493Z,87.52
2018-10-07T04:50:58.336Z,88.15
2018-10-07T04:53:31.329Z,88.80
2018-10-07T04:56:05.109Z,89.26
2018-10-07T04:58:37.771Z,89.67
2018-10-07T05:01:10.483Z,90.44
2018-10-07T05:03:43.313Z,90.71
2018-10-07T05:06:19.025Z,91.22
2018-10-07T05:08:56.122Z,91.27
2018-10-07T05:11:32.269Z,91.74
2018-10-07T05:14:11.380Z,91.73
2018-10-07T05:16:53.571Z,92.02
2018-10-07T05:19:26.221Z,92.20
2018-10-07T05:22:00.225Z,92.43
2018-10-07T05:24:32.700Z,92.63
2018-10-07T05:27:05.377Z,92.71
2018-10-07T05:29:38.288Z,92.93
2018-10-07T05:32:10.878Z,93.07
2018-10-07T05:34:43.432Z,93.28
2018-10-07T05:37:17.261Z,93.37
2018-10-07T05:39:50.061Z,93.42
2018-10-07T05:42:22.823Z,93.29
2018-10-07T05:44:55.551Z,93.28
2018-10-07T05:47:28.256Z,93.20
2018-10-07T05:50:00.712Z,93.33
2018-10-07T05:52:33.952Z,93.50
2018-10-07T05:55:06.941Z,93.58
2018-10-07T05:57:42.324Z,93.58
2018-10-07T06:00:20.313Z,93.62
2018-10-07T06:03:05.307Z,93.69
2018-10-07T06:05:39.748Z,93.58
2018-10-07T06:08:18.756Z,93.43
2018-10-07T06:10:51.561Z,92.79
2018-10-07T06:13:25.745Z,92.30
2018-10-07T06:15:58.336Z,91.88
2018-10-07T06:18:33.489Z,91.43
2018-10-07T06:21:06.731Z,91.27
2018-10-07T06:23:40.253Z,90.90
2018-10-07T06:26:16.884Z,90.31
2018-10-07T06:28:50.201Z,90.07
2018-10-07T06:31:22.817Z,90.14
2018-10-07T06:33:57.756Z,90.15
2018-10-07T06:36:30.435Z,90.10
2018-10-07T06:39:04.156Z,89.72
2018-10-07T06:41:37.276Z,88.73
2018-10-07T06:44:10.134Z,86.88
2018-10-07T06:46:46.929Z,86.87
2018-10-07T06:49:20.469Z,86.78
2018-10-07T06:51:53.254Z,86.42
2018-10-07T06:54:25.930Z,85.82
2018-10-07T06:56:58.820Z,85.01
2018-10-07T06:59:31.910Z,84.74
2018-10-07T07:02:05.117Z,84.31
2018-10-07T07:04:38.185Z,83.65
2018-10-07T07:07:10.725Z,83.28
2018-10-07T07:09:44.993Z,83.19
2018-10-07T07:12:20.181Z,83.27
2018-10-07T07:14:52.823Z,83.26
2018-10-07T07:17:25.333Z,83.74
2018-10-07T07:19:58.501Z,83.90
2018-10-07T07:22:30.923Z,84.06
2018-10-07T07:25:04.728Z,84.02
2018-10-07T07:27:37.916Z,84.12
2018-10-07T07:30:13.656Z,84.45
2018-10-07T07:32:48.572Z,84.11
2018-10-07T07:35:25.026Z,84.05
2018-10-07T07:37:58.836Z,84.34
2018-10-07T07:40:37.084Z,83.31
2018-10-07T07:43:09.960Z,83.13
2018-10-07T07:45:43.741Z,82.65
2018-10-07T07:48:16.375Z,80.98
2018-10-07T07:50:48.940Z,80.23
2018-10-07T07:53:24.030Z,80.09
2018-10-07T07:55:56.561Z,79.57
2018-10-07T07:58:32.580Z,78.66
2018-10-07T08:01:07.165Z,77.61
2018-10-07T08:03:39.855Z,77.65
2018-10-07T08:06:12.454Z,77.06
2018-10-07T08:08:45.097Z,76.59
2018-10-07T08:11:18.368Z,77.05
2018-10-07T08:13:51.357Z,76.88
2018-10-07T08:16:24.908Z,75.51
2018-10-07T08:18:57.611Z,75.01
2018-10-07T08:21:34.515Z,74.46
2018-10-07T08:24:06.968Z,72.80
2018-10-07T08:26:41.788Z,72.23
2018-10-07T08:29:15.861Z,72.13
2018-10-07T08:31:49.558Z,71.19
2018-10-07T08:34:21.984Z,71.49
2018-10-07T08:36:56.452Z,70.90
2018-10-07T08:39:29.249Z,71.04
2018-10-07T08:42:02.394Z,70.30
2018-10-07T08:44:36.844Z,70.31
2018-10-07T08:47:09.333Z,70.79
2018-10-07T08:49:43.007Z,70.47
2018-10-07T08:52:17.636Z,69.52
2018-10-07T08:54:50.941Z,68.60
2018-10-07T08:57:23.605Z,68.58
2018-10-07T08:59:56.612Z,68.54
2018-10-07T09:02:29.302Z,68.99
2018-10-07T09:05:04.269Z,67.86
2018-10-07T09:07:38.929Z,67.14
2018-10-07T09:10:11.326Z,66.18
2018-10-07T09:12:44.427Z,66.37
2018-10-07T09:15:17.992Z,66.90
2018-10-07T09:17:51.752Z,67.58
2018-10-07T09:20:40.803Z,67.46
2018-10-07T09:23:18.212Z,66.75
2018-10-07T09:25:51.376Z,65.87
2018-10-07T09:28:25.065Z,66.27
2018-10-07T09:30:57.962Z,66.27
2018-10-07T09:33:31.448Z,65.95
2018-10-07T09:36:05.417Z,65.38
2018-10-07T09:38:39.425Z,61.31
2018-10-07T09:41:12.233Z,59.98
2018-10-07T09:43:44.972Z,59.27
2018-10-07T09:46:20.816Z,58.67
2018-10-07T09:48:54.834Z,57.67
2018-10-07T09:51:28.610Z,57.14
2018-10-07T09:54:01.346Z,56.26
2018-10-07T09:56:35.197Z,55.77
2018-10-07T09:59:10.914Z,53.95
2018-10-07T10:01:44.628Z,54.50
2018-10-07T10:04:26.293Z,53.45
2018-10-07T10:07:00.219Z,54.27
2018-10-07T10:09:35.800Z,54.31
2018-10-07T10:12:11.443Z,54.80
2018-10-07T10:14:45.144Z,54.19
2018-10-07T10:17:22.668Z,53.58
2018-10-07T10:20:08.979Z,54.17
2018-10-07T10:23:08.555Z,53.77
2018-10-07T10:26:11.681Z,52.56
2018-10-07T10:29:36.780Z,50.51
2018-10-07T10:32:27.908Z,49.45
2018-10-07T10:35:39.722Z,49.38
2018-10-07T10:38:46.978Z,48.65
2018-10-07T10:42:45.325Z,47.39
2018-10-07T10:45:52.552Z,46.96
2018-10-07T10:48:45.217Z,46.79
2018-10-07T10:52:06.873Z,46.40
2018-10-07T10:55:28.808Z,46.02
2018-10-07T10:58:20.772Z,44.56
2018-10-07T11:01:18.310Z,44.34
2018-10-07T11:04:29.322Z,44.52
2018-10-07T11:07:44.731Z,45.64
2018-10-07T11:10:44.585Z,45.79
2018-10-07T11:13:44.084Z,46.07
2018-10-07T11:16:52.949Z,45.33
2018-10-07T11:19:52.055Z,44.54
2018-10-07T11:23:14.082Z,44.78
2018-10-07T11:26:31.553Z,44.87
2018-10-07T11:30:01.129Z,45.72
2018-10-07T11:33:40.665Z,46.15
2018-10-07T11:37:30.810Z,45.27
2018-10-07T11:41:00.136Z,44.73
2018-10-07T11:44:37.005Z,45.52
2018-10-07T11:48:01.841Z,45.33
2018-10-07T11:51:08.757Z,45.37
2018-10-07T11:53:53.844Z,44.93
2018-10-07T11:56:29.277Z,45.13
2018-10-07T11:59:06.504Z,44.62
2018-10-07T12:01:49.964Z,44.78
2018-10-07T12:04:25.924Z,45.12
2018-10-07T12:06:58.886Z,45.51
2018-10-07T12:09:31.537Z,46.08
2018-10-07T12:12:04.818Z,46.33
2018-10-07T12:14:41.310Z,46.83
2018-10-07T12:17:15.969Z,46.78
2018-10-07T12:19:50.417Z,46.14
2018-10-07T12:22:24.811Z,45.90
2018-10-07T12:24:57.738Z,46.07
2018-10-07T12:27:33.086Z,45.36
2018-10-07T12:30:07.222Z,45.57
2018-10-07T12:32:44.590Z,46.12
2018-10-07T12:35:18.457Z,44.87
2018-10-07T12:37:54.033Z,44.29
2018-10-07T12:40:29.361Z,44.72
2018-10-07T12:43:02.725Z,44.59
2018-10-07T12:45:44.043Z,44.01
2018-10-07T12:48:16.892Z,43.33
2018-10-07T12:50:50.984Z,43.22
2018-10-07T12:53:27.169Z,43.23
2018-10-07T12:56:02.332Z,42.80
2018-10-07T12:58:35.304Z,42.06
2018-10-07T13:01:10.242Z,41.49
2018-10-07T13:03:43.728Z,41.07
2018-10-07T13:06:20.157Z,42.02
2018-10-07T13:08:55.460Z,40.66
2018-10-07T13:11:30.493Z,41.26
2018-10-07T13:14:05.635Z,41.46
2018-10-07T13:16:39.282Z,41.26
2018-10-07T13:19:14.024Z,40.96
2018-10-07T13:21:49.341Z,41.79
2018-10-07T13:24:23.253Z,41.17
2018-10-07T13:26:56.772Z,40.08
2018-10-07T13:29:33.912Z,39.83
2018-10-07T13:32:07.546Z,40.21
2018-10-07T13:34:42.441Z,39.91
2018-10-07T13:37:16.418Z,39.79
2018-10-07T13:39:56.995Z,39.67
2018-10-07T13:42:30.634Z,39.46
2018-10-07T13:45:06.261Z,39.64
2018-10-07T13:47:45.817Z,39.07
2018-10-07T13:50:24.597Z,39.28
2018-10-07T13:53:03.380Z,39.50
2018-10-07T13:55:45.261Z,38.87
2018-10-07T13:58:23.301Z,38.96
2018-10-07T14:01:02.497Z,38.67
2018-10-07T14:03:41.817Z,37.92
2018-10-07T14:06:20.372Z,38.45
2018-10-07T14:08:58.556Z,37.51
2018-10-07T14:11:36.207Z,37.23
2018-10-07T14:14:14.467Z,36.56
2018-10-07T14:16:52.784Z,35.76
2018-10-07T14:19:39.870Z,35.25
2018-10-07T14:22:18.504Z,35.58
2018-10-07T14:24:57.414Z,35.46
2018-10-07T14:27:38.732Z,36.66
2018-10-07T14:30:17.975Z,37.79
2018-10-07T14:32:56.460Z,38.86
2018-10-07T14:35:36.098Z,39.83
2018-10-07T14:38:13.633Z,39.71
2018-10-07T14:40:51.502Z,39.96
2018-10-07T14:43:28.985Z,40.19
2018-10-07T14:46:07.278Z,41.12
2018-10-07T14:48:44.781Z,41.88
2018-10-07T14:51:23.945Z,42.52
2018-10-07T14:54:02.254Z,42.48
2018-10-07T14:56:39.926Z,42.85
2018-10-07T14:59:20.049Z,43.34
2018-10-07T15:01:58.324Z,44.12
2018-10-07T15:04:36.037Z,44.44
2018-10-07T15:07:14.235Z,44.96
2018-10-07T15:09:51.823Z,45.06
2018-10-07T15:12:29.503Z,45.84
2018-10-07T15:15:13.547Z,45.65
2018-10-07T15:17:52.342Z,45.89
2018-10-07T15:20:30.112Z,45.92
2018-10-07T15:23:08.987Z,45.87
2018-10-07T15:25:49.161Z,45.07
2018-10-07T15:28:32.219Z,44.37
2018-10-07T15:31:12.236Z,44.10
2018-10-07T15:33:50.755Z,43.96
2018-10-07T15:36:28.177Z,43.34
2018-10-07T15:39:08.531Z,43.83
2018-10-07T15:41:46.563Z,43.75
2018-10-07T15:44:24.752Z,43.57
2018-10-07T15:47:06.325Z,43.59
2018-10-07T15:49:44.466Z,44.14
2018-10-07T15:52:22.253Z,44.94
2018-10-07T15:54:59.847Z,45.29
2018-10-07T15:57:39.725Z,45.60
2018-10-07T16:00:18.348Z,45.68
2018-10-07T16:02:56.752Z,46.27
2018-10-07T16:05:34.779Z,46.42
2018-10-07T16:08:18.495Z,45.58
2018-10-07T16:10:57.510Z,45.94
2018-10-07T16:13:35.413Z,46.05
2018-10-07T16:16:13.011Z,45.69
2018-10-07T16:18:51.831Z,46.10
2018-10-07T16:21:31.441Z,46.82
2018-10-07T16:24:10.991Z,47.30
2018-10-07T16:26:49.418Z,47.78
2018-10-07T16:29:26.949Z,48.58
2018-10-07T16:32:08.608Z,49.25
2018-10-07T16:34:48.097Z,49.75
2018-10-07T16:37:27.837Z,50.38
2018-10-07T16:40:06.097Z,50.95
2018-10-07T16:42:47.472Z,51.54
2018-10-07T16:45:26.969Z,52.18
2018-10-07T16:48:04.748Z,52.73
2018-10-07T16:50:45.689Z,53.38
2018-10-07T16:53:27.905Z,53.90
2018-10-07T16:56:11.955Z,54.27
2018-10-07T16:58:49.721Z,55.04
2018-10-07T17:01:30.617Z,55.76
2018-10-07T17:04:09.305Z,56.01
2018-10-07T17:06:48.362Z,56.56
2018-10-07T17:09:26.990Z,56.82
2018-10-07T17:12:05.536Z,57.38
2018-10-07T17:14:42.955Z,57.80
2018-10-07T17:17:23.715Z,58.29
2018-10-07T17:20:02.192Z,58.42
2018-10-07T17:22:42.489Z,58.76
2018-10-07T17:25:24.532Z,58.98
2018-10-07T17:28:05.052Z,59.34
2018-10-07T17:30:43.884Z,59.76
2018-10-07T17:33:22.377Z,60.61
2018-10-07T17:36:02.366Z,61.35
2018-10-07T17:38:42.747Z,61.94
2018-10-07T17:41:22.959Z,62.63
2018-10-07T17:44:09.734Z,64.00
2018-10-07T17:46:53.498Z,63.98
2018-10-07T17:49:35.153Z,64.14
2018-10-07T17:52:12.764Z,64.78
2018-10-07T17:55:03.796Z,65.06
2018-10-07T17:57:43.133Z,65.57
2018-10-07T18:00:23.226Z,66.33
2018-10-07T18:03:03.578Z,66.79
2018-10-07T18:05:42.297Z,66.98
2018-10-07T18:08:20.162Z,67.21
2018-10-07T18:10:59.540Z,67.16
2018-10-07T18:13:39.246Z,67.38
2018-10-07T18:16:17.432Z,68.06
2018-10-07T18:18:57.133Z,68.34
2018-10-07T18:21:34.524Z,68.23
2018-10-07T18:24:14.026Z,68.36
2018-10-07T18:26:53.761Z,68.43
2018-10-07T18:29:32.485Z,68.40
2018-10-07T18:32:12.159Z,68.95
2018-10-07T18:34:50.661Z,69.06
2018-10-07T18:37:29.104Z,69.32
2018-10-07T18:40:08.464Z,69.35
2018-10-07T18:42:49.232Z,69.35
2018-10-07T18:45:29.229Z,69.51
2018-10-07T18:48:08.622Z,69.62
2018-10-07T18:50:46.535Z,69.75
2018-10-07T18:53:25.900Z,70.12
2018-10-07T18:56:06.342Z,71.77
2018-10-07T18:58:44.164Z,71.58
2018-10-07T19:01:25.160Z,73.00
2018-10-07T19:04:04.693Z,72.63
2018-10-07T19:06:43.999Z,72.75
2018-10-07T19:09:24.853Z,73.17
2018-10-07T19:12:08.579Z,73.40
2018-10-07T19:14:49.426Z,74.02
2018-10-07T19:17:27.645Z,74.84
2018-10-07T19:20:06.340Z,75.16
2018-10-07T19:22:47.745Z,75.24
2018-10-07T19:25:30.778Z,75.27
2018-10-07T19:28:09.419Z,75.10
2018-10-07T19:30:50.335Z,75.57
2018-10-07T19:33:32.353Z,75.77
2018-10-07T19:36:09.931Z,76.14
2018-10-07T19:38:49.495Z,76.84
2018-10-07T19:41:30.263Z,78.07
2018-10-07T19:44:13.252Z,78.50
2018-10-07T19:46:52.821Z,79.46
2018-10-07T19:49:33.297Z,78.91
2018-10-07T19:52:08.922Z,78.83
2018-10-07T19:54:43.613Z,79.02
2018-10-07T19:57:22.134Z,79.17
2018-10-07T20:00:01.112Z,79.34
2018-10-07T20:02:39.829Z,79.60
2018-10-07T20:05:19.017Z,80.14
2018-10-07T20:07:58.461Z,80.31
2018-10-07T20:10:38.593Z,81.18
2018-10-07T20:13:18.146Z,81.02
2018-10-07T20:15:58.637Z,80.87
2018-10-07T20:18:34.905Z,80.94
2018-10-07T20:21:13.228Z,81.06
2018-10-07T20:23:49.894Z,81.20
2018-10-07T20:26:27.443Z,81.40
2018-10-07T20:29:01.945Z,81.62
2018-10-07T20:31:36.374Z,81.70
2018-10-07T20:34:11.224Z,81.90
2018-10-07T20:36:47.138Z,81.85
2018-10-07T20:39:20.669Z,82.10
2018-10-07T20:41:54.083Z,81.85
2018-10-07T20:44:37.088Z,82.09
2018-10-07T20:47:12.616Z,82.12
2018-10-07T20:49:46.704Z,82.07
2018-10-07T20:52:25.210Z,82.27
2018-10-07T20:55:01.408Z,82.29
2018-10-07T20:57:35.663Z,82.50
2018-10-07T21:00:27.021Z,82.47
2018-10-07T21:03:03.961Z,82.78
2018-10-07T21:05:39.536Z,83.17
2018-10-07T21:08:14.989Z,83.41
2018-10-07T21:10:47.644Z,83.93
2018-10-07T21:13:22.467Z,83.59
2018-10-07T21:15:58.285Z,83.51
2018-10-07T21:18:32.950Z,83.63
2018-10-07T21:21:07.099Z,83.91
2018-10-07T21:23:40.121Z,84.04
2018-10-07T21:26:13.754Z,84.13
2018-10-07T21:28:48.751Z,84.42
2018-10-07T21:31:21.881Z,84.54
2018-10-07T21:33:54.503Z,84.67
2018-10-07T21:36:29.614Z,84.65
2018-10-07T21:39:06.216Z,84.24
2018-10-07T21:41:39.115Z,83.65
2018-10-07T21:44:14.297Z,83.63
2018-10-07T21:46:48.629Z,83.89
2018-10-07T21:49:24.801Z,84.44
2018-10-07T21:51:58.811Z,85.00
2018-10-07T21:54:33.641Z,84.97
2018-10-07T21:57:06.848Z,85.56
2018-10-07T21:59:39.999Z,86.43
2018-10-07T22:02:13.877Z,86.50
2018-10-07T22:04:48.002Z,85.56
2018-10-07T22:07:25.353Z,84.82
2018-10-07T22:09:57.915Z,84.38
2018-10-07T22:12:33.088Z,84.76
2018-10-07T22:15:13.691Z,85.20
2018-10-07T22:17:47.252Z,84.86
2018-10-07T22:20:20.233Z,84.41
2018-10-07T22:22:54.068Z,84.43
2018-10-07T22:25:26.641Z,84.58
2018-10-07T22:27:59.676Z,84.73
2018-10-07T22:30:34.910Z,84.88
2018-10-07T22:33:07.596Z,85.23
2018-10-07T22:35:44.620Z,85.55
2018-10-07T22:38:19.769Z,85.72
2018-10-07T22:40:53.462Z,85.66
2018-10-07T22:43:26.516Z,85.68
2018-10-07T22:45:59.837Z,85.73
2018-10-07T22:48:35.952Z,86.01
2018-10-07T22:51:09.565Z,86.03
2018-10-07T22:53:42.972Z,86.13
2018-10-07T22:56:16.265Z,86.92
2018-10-07T22:58:49.886Z,87.17
2018-10-07T23:01:24.585Z,87.29
2018-10-07T23:04:00.000Z,87.36
2018-10-07T23:06:34.572Z,86.98
2018-10-07T23:09:12.451Z,86.79
2018-10-07T23:11:45.307Z,86.75
2018-10-07T23:14:20.169Z,86.82
2018-10-07T23:16:52.957Z,86.91
2018-10-07T23:19:25.660Z,86.92
2018-10-07T23:21:59.136Z,87.02
2018-10-07T23:24:31.674Z,87.57
2018-10-07T23:27:04.520Z,88.15
2018-10-07T23:29:37.464Z,88.08
2018-10-07T23:32:09.976Z,87.90
2018-10-07T23:34:44.800Z,87.79
2018-10-07T23:37:18.657Z,87.72
2018-10-07T23:39:52.373Z,87.66
2018-10-07T23:42:25.016Z,87.75
2018-10-07T23:44:57.847Z,87.82
2018-10-07T23:47:30.380Z,87.93
2018-10-07T23:50:04.397Z,87.94
2018-10-07T23:52:37.151Z,87.75
2018-10-07T23:55:10.401Z,87.85
